Otego, New York
Current Conditions -  °F | °C
As of 4:53 AM on Wednesday 26 Nov 2014 (Local Time) from KBGM Reporting Station
Overcast Overcast  
Wind Chill: 31°   Ceiling: 2200
Heat Index: 31°   Visibility: 10mi
Dew Point: 25°   Wind: 3mph
Humidity: 79%   Direction: 90°E
Pressure: 30.14"   Gusts: NA
Location:  42.4°N, 75.17°W
Report Text: KBGM 260953Z AUTO 09003KT 10SM OVC022 M01/M04 A3014 RMK AO2 PRESFR SLP220 T10061039
Loading
Personal Weather Stations






























Interactive Weather Map New forecast layout! Learn more

10-Day Weather Forecast

Advertisements
Track Severe Weather on mobile